sensor_id;sensor_type;location;lat;lon;timestamp;temperature;humidity
20726;DHT22;10524;48.132;8.518;2023-03-08T00:00:00;-1.30;99.90
20726;DHT22;10524;48.132;8.518;2023-03-08T00:02:25;-1.40;99.90
20726;DHT22;10524;48.132;8.518;2023-03-08T00:04:54;-1.50;99.90
20726;DHT22;10524;48.132;8.518;2023-03-08T00:07:21;-1.70;99.90
20726;DHT22;10524;48.132;8.518;2023-03-08T00:09:47;-1.60;99.90
20726;DHT22;10524;48.132;8.518;2023-03-08T00:12:12;-1.50;99.90
20726;DHT22;10524;48.132;8.518;2023-03-08T00:14:38;-1.50;99.90
20726;DHT22;10524;48.132;8.518;2023-03-08T00:17:04;-1.60;99.90
20726;DHT22;10524;48.132;8.518;2023-03-08T00:19:30;-1.50;99.90
20726;DHT22;10524;48.132;8.518;2023-03-08T00:21:56;-1.50;99.90
20726;DHT22;10524;48.132;8.518;2023-03-08T00:24:21;-1.40;99.90
20726;DHT22;10524;48.132;8.518;2023-03-08T00:26:47;-1.40;99.90
20726;DHT22;10524;48.132;8.518;2023-03-08T00:29:13;-1.50;99.90
20726;DHT22;10524;48.132;8.518;2023-03-08T00:31:38;-1.40;99.90
20726;DHT22;10524;48.132;8.518;2023-03-08T00:34:04;-1.40;99.90
20726;DHT22;10524;48.132;8.518;2023-03-08T00:36:29;-1.40;99.90
20726;DHT22;10524;48.132;8.518;2023-03-08T00:38:56;-1.50;99.90
20726;DHT22;10524;48.132;8.518;2023-03-08T00:41:22;-1.60;99.90
20726;DHT22;10524;48.132;8.518;2023-03-08T00:43:48;-1.50;99.90
20726;DHT22;10524;48.132;8.518;2023-03-08T00:46:14;-1.50;99.90
20726;DHT22;10524;48.132;8.518;2023-03-08T00:48:40;-1.40;99.90
20726;DHT22;10524;48.132;8.518;2023-03-08T00:51:07;-1.30;99.90
20726;DHT22;10524;48.132;8.518;2023-03-08T00:53:36;-1.30;99.90
20726;DHT22;10524;48.132;8.518;2023-03-08T00:56:01;-1.30;99.90
20726;DHT22;10524;48.132;8.518;2023-03-08T00:58:28;-1.30;99.90
20726;DHT22;10524;48.132;8.518;2023-03-08T01:00:55;-1.30;99.90
20726;DHT22;10524;48.132;8.518;2023-03-08T01:03:21;-1.40;99.90
20726;DHT22;10524;48.132;8.518;2023-03-08T01:05:49;-1.40;99.90
20726;DHT22;10524;48.132;8.518;2023-03-08T01:08:16;-1.40;99.90
20726;DHT22;10524;48.132;8.518;2023-03-08T01:10:50;-1.50;99.90
20726;DHT22;10524;48.132;8.518;2023-03-08T01:13:17;-1.40;99.90
20726;DHT22;10524;48.132;8.518;2023-03-08T01:15:43;-1.30;99.90
20726;DHT22;10524;48.132;8.518;2023-03-08T01:18:09;-1.20;99.90
20726;DHT22;10524;48.132;8.518;2023-03-08T01:20:35;-1.00;99.90
20726;DHT22;10524;48.132;8.518;2023-03-08T01:23:00;-0.90;99.90
20726;DHT22;10524;48.132;8.518;2023-03-08T01:25:26;-0.80;99.90
20726;DHT22;10524;48.132;8.518;2023-03-08T01:27:52;-0.70;99.90
20726;DHT22;10524;48.132;8.518;2023-03-08T01:30:18;-0.60;99.90
20726;DHT22;10524;48.132;8.518;2023-03-08T01:32:43;-0.60;99.90
20726;DHT22;10524;48.132;8.518;2023-03-08T01:35:09;-0.50;99.90
20726;DHT22;10524;48.132;8.518;2023-03-08T01:37:35;-0.60;99.90
20726;DHT22;10524;48.132;8.518;2023-03-08T01:40:02;-0.70;99.90
20726;DHT22;10524;48.132;8.518;2023-03-08T01:42:29;-0.80;99.90
20726;DHT22;10524;48.132;8.518;2023-03-08T01:45:03;-0.70;99.90
20726;DHT22;10524;48.132;8.518;2023-03-08T01:47:31;-0.80;99.90
20726;DHT22;10524;48.132;8.518;2023-03-08T01:50:02;-0.80;99.90
20726;DHT22;10524;48.132;8.518;2023-03-08T01:52:36;-0.70;99.90
20726;DHT22;10524;48.132;8.518;2023-03-08T01:55:06;-0.60;99.90
20726;DHT22;10524;48.132;8.518;2023-03-08T01:57:53;-0.40;99.90
20726;DHT22;10524;48.132;8.518;2023-03-08T02:00:22;-0.30;99.90
20726;DHT22;10524;48.132;8.518;2023-03-08T02:02:56;-0.30;99.90
20726;DHT22;10524;48.132;8.518;2023-03-08T02:05:23;-0.30;99.90
20726;DHT22;10524;48.132;8.518;2023-03-08T02:07:49;-0.50;99.90
20726;DHT22;10524;48.132;8.518;2023-03-08T02:10:15;-0.60;99.90
20726;DHT22;10524;48.132;8.518;2023-03-08T02:12:41;-0.60;99.90
20726;DHT22;10524;48.132;8.518;2023-03-08T02:15:10;-0.50;99.90
20726;DHT22;10524;48.132;8.518;2023-03-08T02:17:37;-0.40;99.90
20726;DHT22;10524;48.132;8.518;2023-03-08T02:22:39;-0.30;99.90
20726;DHT22;10524;48.132;8.518;2023-03-08T02:25:16;-0.30;99.90
20726;DHT22;10524;48.132;8.518;2023-03-08T02:27:42;-0.20;99.90
20726;DHT22;10524;48.132;8.518;2023-03-08T02:30:10;-0.10;99.90
20726;DHT22;10524;48.132;8.518;2023-03-08T02:32:37;0.00;99.90
20726;DHT22;10524;48.132;8.518;2023-03-08T02:35:02;0.20;99.90
20726;DHT22;10524;48.132;8.518;2023-03-08T02:37:30;0.20;99.90
20726;DHT22;10524;48.132;8.518;2023-03-08T02:39:56;0.20;99.90
20726;DHT22;10524;48.132;8.518;2023-03-08T02:42:22;0.20;99.90
20726;DHT22;10524;48.132;8.518;2023-03-08T02:44:47;0.00;99.90
20726;DHT22;10524;48.132;8.518;2023-03-08T02:47:13;-0.10;99.90
20726;DHT22;10524;48.132;8.518;2023-03-08T02:49:39;-0.20;99.90
20726;DHT22;10524;48.132;8.518;2023-03-08T02:52:04;-0.30;99.90
20726;DHT22;10524;48.132;8.518;2023-03-08T02:54:30;-0.30;99.90
20726;DHT22;10524;48.132;8.518;2023-03-08T02:56:55;-0.30;99.90
20726;DHT22;10524;48.132;8.518;2023-03-08T02:59:21;-0.30;99.90
20726;DHT22;10524;48.132;8.518;2023-03-08T03:01:47;-0.30;99.90
20726;DHT22;10524;48.132;8.518;2023-03-08T03:04:12;-0.30;99.90
20726;DHT22;10524;48.132;8.518;2023-03-08T03:06:38;-0.30;99.90
20726;DHT22;10524;48.132;8.518;2023-03-08T03:09:07;-0.30;99.90
20726;DHT22;10524;48.132;8.518;2023-03-08T03:11:33;-0.20;99.90
20726;DHT22;10524;48.132;8.518;2023-03-08T03:13:59;-0.10;99.90
20726;DHT22;10524;48.132;8.518;2023-03-08T03:16:25;0.00;99.90
20726;DHT22;10524;48.132;8.518;2023-03-08T03:18:55;0.00;99.90
20726;DHT22;10524;48.132;8.518;2023-03-08T03:21:22;0.00;99.90
20726;DHT22;10524;48.132;8.518;2023-03-08T03:23:48;0.00;99.90
20726;DHT22;10524;48.132;8.518;2023-03-08T03:26:16;0.00;99.90
20726;DHT22;10524;48.132;8.518;2023-03-08T03:28:43;0.10;99.90
20726;DHT22;10524;48.132;8.518;2023-03-08T03:31:11;0.10;99.90
20726;DHT22;10524;48.132;8.518;2023-03-08T03:33:37;0.20;99.90
20726;DHT22;10524;48.132;8.518;2023-03-08T03:36:03;0.20;99.90
20726;DHT22;10524;48.132;8.518;2023-03-08T03:38:29;0.20;99.90
20726;DHT22;10524;48.132;8.518;2023-03-08T03:41:03;0.20;99.90
20726;DHT22;10524;48.132;8.518;2023-03-08T03:43:29;0.20;99.90
20726;DHT22;10524;48.132;8.518;2023-03-08T03:45:59;0.20;99.90
20726;DHT22;10524;48.132;8.518;2023-03-08T03:48:26;0.20;99.90
20726;DHT22;10524;48.132;8.518;2023-03-08T03:51:03;0.20;99.90
20726;DHT22;10524;48.132;8.518;2023-03-08T03:53:30;0.20;99.90
20726;DHT22;10524;48.132;8.518;2023-03-08T03:58:32;0.20;99.90
20726;DHT22;10524;48.132;8.518;2023-03-08T04:00:58;0.30;99.90
20726;DHT22;10524;48.132;8.518;2023-03-08T04:03:24;0.30;99.90
20726;DHT22;10524;48.132;8.518;2023-03-08T04:05:50;0.30;99.90
20726;DHT22;10524;48.132;8.518;2023-03-08T04:08:16;0.30;99.90
20726;DHT22;10524;48.132;8.518;2023-03-08T04:10:42;0.30;99.90
20726;DHT22;10524;48.132;8.518;2023-03-08T04:13:10;0.30;99.90
20726;DHT22;10524;48.132;8.518;2023-03-08T04:15:36;0.30;99.90
20726;DHT22;10524;48.132;8.518;2023-03-08T04:18:01;0.20;99.90
20726;DHT22;10524;48.132;8.518;2023-03-08T04:20:27;0.20;99.90
20726;DHT22;10524;48.132;8.518;2023-03-08T04:22:52;0.20;99.90
20726;DHT22;10524;48.132;8.518;2023-03-08T04:25:18;0.10;99.90
20726;DHT22;10524;48.132;8.518;2023-03-08T04:27:45;0.20;99.90
20726;DHT22;10524;48.132;8.518;2023-03-08T04:30:11;0.20;99.90
20726;DHT22;10524;48.132;8.518;2023-03-08T04:32:37;0.20;99.90
20726;DHT22;10524;48.132;8.518;2023-03-08T04:35:03;0.20;99.90
20726;DHT22;10524;48.132;8.518;2023-03-08T04:37:29;0.20;99.90
20726;DHT22;10524;48.132;8.518;2023-03-08T04:39:55;0.30;99.90
20726;DHT22;10524;48.132;8.518;2023-03-08T04:42:21;0.30;99.90
20726;DHT22;10524;48.132;8.518;2023-03-08T04:44:47;0.40;99.90
20726;DHT22;10524;48.132;8.518;2023-03-08T04:47:12;0.40;99.90
20726;DHT22;10524;48.132;8.518;2023-03-08T04:49:38;0.40;99.90
20726;DHT22;10524;48.132;8.518;2023-03-08T04:52:04;0.40;99.90
20726;DHT22;10524;48.132;8.518;2023-03-08T04:54:30;0.50;99.90
20726;DHT22;10524;48.132;8.518;2023-03-08T04:56:55;0.40;99.90
20726;DHT22;10524;48.132;8.518;2023-03-08T04:59:21;0.50;99.90
20726;DHT22;10524;48.132;8.518;2023-03-08T05:01:47;0.50;99.90
20726;DHT22;10524;48.132;8.518;2023-03-08T05:04:12;0.50;99.90
20726;DHT22;10524;48.132;8.518;2023-03-08T05:06:38;0.50;99.90
20726;DHT22;10524;48.132;8.518;2023-03-08T05:09:04;0.60;99.90
20726;DHT22;10524;48.132;8.518;2023-03-08T05:11:30;0.50;99.90
20726;DHT22;10524;48.132;8.518;2023-03-08T05:13:57;0.50;99.90
20726;DHT22;10524;48.132;8.518;2023-03-08T05:16:24;0.50;99.90
20726;DHT22;10524;48.132;8.518;2023-03-08T05:18:50;0.60;99.90
20726;DHT22;10524;48.132;8.518;2023-03-08T05:21:19;0.50;99.90
20726;DHT22;10524;48.132;8.518;2023-03-08T05:23:45;0.50;99.90
20726;DHT22;10524;48.132;8.518;2023-03-08T05:26:13;0.50;99.90
20726;DHT22;10524;48.132;8.518;2023-03-08T05:28:40;0.50;99.90
20726;DHT22;10524;48.132;8.518;2023-03-08T05:31:11;0.50;99.90
20726;DHT22;10524;48.132;8.518;2023-03-08T05:33:38;0.50;99.90
20726;DHT22;10524;48.132;8.518;2023-03-08T05:36:04;0.50;99.90
20726;DHT22;10524;48.132;8.518;2023-03-08T05:38:30;0.50;99.90
20726;DHT22;10524;48.132;8.518;2023-03-08T05:41:04;0.60;99.90
20726;DHT22;10524;48.132;8.518;2023-03-08T05:43:30;0.60;99.90
20726;DHT22;10524;48.132;8.518;2023-03-08T05:46:04;0.60;99.90
20726;DHT22;10524;48.132;8.518;2023-03-08T05:48:32;0.60;99.90
20726;DHT22;10524;48.132;8.518;2023-03-08T05:50:58;0.70;99.90
20726;DHT22;10524;48.132;8.518;2023-03-08T05:53:24;0.70;99.90
20726;DHT22;10524;48.132;8.518;2023-03-08T05:55:50;0.80;99.90
20726;DHT22;10524;48.132;8.518;2023-03-08T05:58:15;0.80;99.90
20726;DHT22;10524;48.132;8.518;2023-03-08T06:00:41;0.90;99.90
20726;DHT22;10524;48.132;8.518;2023-03-08T06:03:07;0.90;99.90
20726;DHT22;10524;48.132;8.518;2023-03-08T06:05:33;0.90;99.90
20726;DHT22;10524;48.132;8.518;2023-03-08T06:07:58;1.00;99.90
20726;DHT22;10524;48.132;8.518;2023-03-08T06:10:24;1.00;99.90
20726;DHT22;10524;48.132;8.518;2023-03-08T06:12:50;1.00;99.90
20726;DHT22;10524;48.132;8.518;2023-03-08T06:15:16;1.00;99.90
20726;DHT22;10524;48.132;8.518;2023-03-08T06:17:42;1.00;99.90
20726;DHT22;10524;48.132;8.518;2023-03-08T06:20:08;1.00;99.90
20726;DHT22;10524;48.132;8.518;2023-03-08T06:22:34;1.00;99.90
20726;DHT22;10524;48.132;8.518;2023-03-08T06:25:01;1.00;99.90
20726;DHT22;10524;48.132;8.518;2023-03-08T06:27:27;1.00;99.90
20726;DHT22;10524;48.132;8.518;2023-03-08T06:29:52;1.00;99.90
20726;DHT22;10524;48.132;8.518;2023-03-08T06:32:18;1.10;99.90
20726;DHT22;10524;48.132;8.518;2023-03-08T06:34:44;1.10;99.90
20726;DHT22;10524;48.132;8.518;2023-03-08T06:37:11;1.20;99.90
20726;DHT22;10524;48.132;8.518;2023-03-08T06:39:36;1.20;99.90
20726;DHT22;10524;48.132;8.518;2023-03-08T06:42:02;1.20;99.90
20726;DHT22;10524;48.132;8.518;2023-03-08T06:44:29;1.30;99.90
20726;DHT22;10524;48.132;8.518;2023-03-08T06:46:55;1.30;99.90
20726;DHT22;10524;48.132;8.518;2023-03-08T06:49:21;1.40;99.90
20726;DHT22;10524;48.132;8.518;2023-03-08T06:51:47;1.40;99.90
20726;DHT22;10524;48.132;8.518;2023-03-08T06:54:13;1.50;99.90
20726;DHT22;10524;48.132;8.518;2023-03-08T06:56:44;1.50;99.90
20726;DHT22;10524;48.132;8.518;2023-03-08T06:59:11;1.50;99.90
20726;DHT22;10524;48.132;8.518;2023-03-08T07:01:37;1.50;99.90
20726;DHT22;10524;48.132;8.518;2023-03-08T07:04:02;1.60;99.90
20726;DHT22;10524;48.132;8.518;2023-03-08T07:06:28;1.70;99.90
20726;DHT22;10524;48.132;8.518;2023-03-08T07:08:54;1.80;99.90
20726;DHT22;10524;48.132;8.518;2023-03-08T07:11:19;1.90;99.90
20726;DHT22;10524;48.132;8.518;2023-03-08T07:13:45;2.00;99.90
20726;DHT22;10524;48.132;8.518;2023-03-08T07:16:12;2.10;99.90
20726;DHT22;10524;48.132;8.518;2023-03-08T07:18:39;2.10;99.90
20726;DHT22;10524;48.132;8.518;2023-03-08T07:21:05;2.10;99.90
20726;DHT22;10524;48.132;8.518;2023-03-08T07:23:30;2.30;99.90
20726;DHT22;10524;48.132;8.518;2023-03-08T07:25:56;2.40;99.90
20726;DHT22;10524;48.132;8.518;2023-03-08T07:28:22;2.50;99.90
20726;DHT22;10524;48.132;8.518;2023-03-08T07:30:49;2.50;99.90
20726;DHT22;10524;48.132;8.518;2023-03-08T07:33:16;2.50;99.90
20726;DHT22;10524;48.132;8.518;2023-03-08T07:35:41;2.50;99.90
20726;DHT22;10524;48.132;8.518;2023-03-08T07:38:07;2.50;99.90
20726;DHT22;10524;48.132;8.518;2023-03-08T07:40:33;2.40;99.90
20726;DHT22;10524;48.132;8.518;2023-03-08T07:42:58;2.50;99.90
20726;DHT22;10524;48.132;8.518;2023-03-08T07:45:25;3.10;99.90
20726;DHT22;10524;48.132;8.518;2023-03-08T07:47:50;4.00;99.90
20726;DHT22;10524;48.132;8.518;2023-03-08T07:50:20;4.50;99.90
20726;DHT22;10524;48.132;8.518;2023-03-08T07:52:46;4.50;99.90
20726;DHT22;10524;48.132;8.518;2023-03-08T07:55:12;4.30;99.90
20726;DHT22;10524;48.132;8.518;2023-03-08T07:57:38;3.90;99.90
20726;DHT22;10524;48.132;8.518;2023-03-08T08:00:05;3.50;99.90
20726;DHT22;10524;48.132;8.518;2023-03-08T08:02:35;3.40;99.90
20726;DHT22;10524;48.132;8.518;2023-03-08T08:05:03;3.20;99.90
20726;DHT22;10524;48.132;8.518;2023-03-08T08:07:30;3.40;99.90
20726;DHT22;10524;48.132;8.518;2023-03-08T08:09:55;3.90;99.90
20726;DHT22;10524;48.132;8.518;2023-03-08T08:12:21;4.40;99.90
20726;DHT22;10524;48.132;8.518;2023-03-08T08:14:50;4.60;99.90
20726;DHT22;10524;48.132;8.518;2023-03-08T08:17:17;5.10;99.90
20726;DHT22;10524;48.132;8.518;2023-03-08T08:19:43;6.30;99.90
20726;DHT22;10524;48.132;8.518;2023-03-08T08:22:09;6.20;99.90
20726;DHT22;10524;48.132;8.518;2023-03-08T08:24:35;5.60;99.90
20726;DHT22;10524;48.132;8.518;2023-03-08T08:27:00;5.40;99.90
20726;DHT22;10524;48.132;8.518;2023-03-08T08:29:26;5.10;99.90
20726;DHT22;10524;48.132;8.518;2023-03-08T08:31:51;5.30;99.90
20726;DHT22;10524;48.132;8.518;2023-03-08T08:34:21;5.40;99.90
20726;DHT22;10524;48.132;8.518;2023-03-08T08:36:47;5.80;99.90
20726;DHT22;10524;48.132;8.518;2023-03-08T08:39:12;5.70;99.90
20726;DHT22;10524;48.132;8.518;2023-03-08T08:41:38;5.50;99.90
20726;DHT22;10524;48.132;8.518;2023-03-08T08:44:04;5.30;99.90
20726;DHT22;10524;48.132;8.518;2023-03-08T08:46:29;5.20;99.90
20726;DHT22;10524;48.132;8.518;2023-03-08T08:48:58;5.10;99.90
20726;DHT22;10524;48.132;8.518;2023-03-08T08:51:24;4.90;99.90
20726;DHT22;10524;48.132;8.518;2023-03-08T08:53:50;4.80;99.90
20726;DHT22;10524;48.132;8.518;2023-03-08T08:56:17;4.70;99.90
20726;DHT22;10524;48.132;8.518;2023-03-08T08:58:43;4.80;99.90
20726;DHT22;10524;48.132;8.518;2023-03-08T09:01:26;4.60;99.90
20726;DHT22;10524;48.132;8.518;2023-03-08T09:03:52;4.70;99.90
20726;DHT22;10524;48.132;8.518;2023-03-08T09:06:19;4.60;99.90
20726;DHT22;10524;48.132;8.518;2023-03-08T09:08:54;4.40;99.90
20726;DHT22;10524;48.132;8.518;2023-03-08T09:11:20;4.20;99.90
20726;DHT22;10524;48.132;8.518;2023-03-08T09:13:47;4.10;99.90
20726;DHT22;10524;48.132;8.518;2023-03-08T09:16:24;4.10;99.90
20726;DHT22;10524;48.132;8.518;2023-03-08T09:18:50;4.00;99.90
20726;DHT22;10524;48.132;8.518;2023-03-08T09:21:17;4.10;99.90
20726;DHT22;10524;48.132;8.518;2023-03-08T09:23:42;4.00;99.90
20726;DHT22;10524;48.132;8.518;2023-03-08T09:26:08;4.00;99.90
20726;DHT22;10524;48.132;8.518;2023-03-08T09:28:34;4.00;99.90
20726;DHT22;10524;48.132;8.518;2023-03-08T09:31:05;3.90;99.90
20726;DHT22;10524;48.132;8.518;2023-03-08T09:33:37;3.90;99.90
20726;DHT22;10524;48.132;8.518;2023-03-08T09:36:03;4.00;99.90
20726;DHT22;10524;48.132;8.518;2023-03-08T09:38:28;4.10;99.90
20726;DHT22;10524;48.132;8.518;2023-03-08T09:46:11;4.60;99.90
20726;DHT22;10524;48.132;8.518;2023-03-08T09:48:37;4.80;99.90
20726;DHT22;10524;48.132;8.518;2023-03-08T09:51:08;5.10;99.90
20726;DHT22;10524;48.132;8.518;2023-03-08T09:53:55;5.30;99.90
20726;DHT22;10524;48.132;8.518;2023-03-08T09:56:53;5.80;99.90
20726;DHT22;10524;48.132;8.518;2023-03-08T09:59:27;6.30;99.90
20726;DHT22;10524;48.132;8.518;2023-03-08T10:04:56;6.90;99.90
20726;DHT22;10524;48.132;8.518;2023-03-08T10:07:55;7.20;99.90
20726;DHT22;10524;48.132;8.518;2023-03-08T10:10:34;7.30;99.90
20726;DHT22;10524;48.132;8.518;2023-03-08T10:15:38;7.70;99.90
20726;DHT22;10524;48.132;8.518;2023-03-08T10:18:29;7.90;99.90
20726;DHT22;10524;48.132;8.518;2023-03-08T10:20:57;8.20;99.90
20726;DHT22;10524;48.132;8.518;2023-03-08T10:23:23;8.40;99.90
20726;DHT22;10524;48.132;8.518;2023-03-08T10:25:50;8.50;99.90
20726;DHT22;10524;48.132;8.518;2023-03-08T10:28:22;8.90;99.90
20726;DHT22;10524;48.132;8.518;2023-03-08T10:30:59;9.20;99.90
20726;DHT22;10524;48.132;8.518;2023-03-08T10:33:33;9.30;99.90
20726;DHT22;10524;48.132;8.518;2023-03-08T10:36:02;9.50;99.90
20726;DHT22;10524;48.132;8.518;2023-03-08T10:38:32;9.80;99.90
20726;DHT22;10524;48.132;8.518;2023-03-08T10:41:01;10.40;99.90
20726;DHT22;10524;48.132;8.518;2023-03-08T10:43:38;10.40;99.90
20726;DHT22;10524;48.132;8.518;2023-03-08T10:46:11;11.10;99.90
20726;DHT22;10524;48.132;8.518;2023-03-08T10:48:37;11.90;99.90
20726;DHT22;10524;48.132;8.518;2023-03-08T10:51:04;11.70;99.90
20726;DHT22;10524;48.132;8.518;2023-03-08T10:53:31;12.30;99.90
20726;DHT22;10524;48.132;8.518;2023-03-08T10:55:59;13.10;99.90
20726;DHT22;10524;48.132;8.518;2023-03-08T10:58:35;13.10;99.90
20726;DHT22;10524;48.132;8.518;2023-03-08T11:01:25;13.60;99.90
20726;DHT22;10524;48.132;8.518;2023-03-08T11:04:03;13.40;99.90
20726;DHT22;10524;48.132;8.518;2023-03-08T11:06:30;14.00;99.90
20726;DHT22;10524;48.132;8.518;2023-03-08T11:08:58;13.70;99.90
20726;DHT22;10524;48.132;8.518;2023-03-08T11:11:25;13.20;99.90
20726;DHT22;10524;48.132;8.518;2023-03-08T11:13:52;13.10;99.90
20726;DHT22;10524;48.132;8.518;2023-03-08T11:26:58;15.80;99.90
20726;DHT22;10524;48.132;8.518;2023-03-08T11:35:23;14.90;99.90
20726;DHT22;10524;48.132;8.518;2023-03-08T11:38:02;13.30;99.90
20726;DHT22;10524;48.132;8.518;2023-03-08T11:51:28;12.60;99.90
20726;DHT22;10524;48.132;8.518;2023-03-08T11:59:29;11.60;99.90
20726;DHT22;10524;48.132;8.518;2023-03-08T12:07:19;11.30;99.90
20726;DHT22;10524;48.132;8.518;2023-03-08T12:12:46;11.50;99.90
20726;DHT22;10524;48.132;8.518;2023-03-08T12:17:49;11.10;99.90
20726;DHT22;10524;48.132;8.518;2023-03-08T12:20:16;11.20;99.90
20726;DHT22;10524;48.132;8.518;2023-03-08T12:22:54;11.20;99.90
20726;DHT22;10524;48.132;8.518;2023-03-08T12:25:30;11.20;99.90
20726;DHT22;10524;48.132;8.518;2023-03-08T12:28:16;10.40;99.90
20726;DHT22;10524;48.132;8.518;2023-03-08T12:33:28;9.50;99.90
20726;DHT22;10524;48.132;8.518;2023-03-08T12:36:06;9.50;99.90
20726;DHT22;10524;48.132;8.518;2023-03-08T12:38:36;9.30;99.90
20726;DHT22;10524;48.132;8.518;2023-03-08T12:41:04;9.30;99.90
20726;DHT22;10524;48.132;8.518;2023-03-08T12:43:33;9.30;99.90
20726;DHT22;10524;48.132;8.518;2023-03-08T12:51:20;9.50;99.90
20726;DHT22;10524;48.132;8.518;2023-03-08T12:59:23;9.70;99.90
20726;DHT22;10524;48.132;8.518;2023-03-08T13:14:45;9.60;99.90
20726;DHT22;10524;48.132;8.518;2023-03-08T13:19:57;9.60;99.90
20726;DHT22;10524;48.132;8.518;2023-03-08T13:22:27;9.60;99.90
20726;DHT22;10524;48.132;8.518;2023-03-08T13:24:59;9.60;99.90
20726;DHT22;10524;48.132;8.518;2023-03-08T13:27:52;9.50;99.90
20726;DHT22;10524;48.132;8.518;2023-03-08T13:30:28;9.60;99.90
20726;DHT22;10524;48.132;8.518;2023-03-08T13:32:56;9.20;99.90
20726;DHT22;10524;48.132;8.518;2023-03-08T13:35:22;9.00;99.90
20726;DHT22;10524;48.132;8.518;2023-03-08T13:37:52;8.80;99.90
20726;DHT22;10524;48.132;8.518;2023-03-08T13:40:20;8.70;99.90
20726;DHT22;10524;48.132;8.518;2023-03-08T13:42:54;8.40;99.90
20726;DHT22;10524;48.132;8.518;2023-03-08T13:45:20;8.30;99.90
20726;DHT22;10524;48.132;8.518;2023-03-08T13:47:46;8.30;99.90
20726;DHT22;10524;48.132;8.518;2023-03-08T13:50:19;8.20;99.90
20726;DHT22;10524;48.132;8.518;2023-03-08T13:52:45;8.20;99.90
20726;DHT22;10524;48.132;8.518;2023-03-08T13:55:22;8.30;99.90
20726;DHT22;10524;48.132;8.518;2023-03-08T13:57:51;8.20;99.90
20726;DHT22;10524;48.132;8.518;2023-03-08T14:02:45;8.20;99.90
20726;DHT22;10524;48.132;8.518;2023-03-08T14:05:23;8.20;99.90
20726;DHT22;10524;48.132;8.518;2023-03-08T14:08:00;8.20;99.90
20726;DHT22;10524;48.132;8.518;2023-03-08T14:10:46;8.20;99.90
20726;DHT22;10524;48.132;8.518;2023-03-08T14:13:16;8.30;99.90
20726;DHT22;10524;48.132;8.518;2023-03-08T14:15:57;8.30;99.90
20726;DHT22;10524;48.132;8.518;2023-03-08T14:18:36;8.20;99.90
20726;DHT22;10524;48.132;8.518;2023-03-08T14:21:05;8.20;99.90
20726;DHT22;10524;48.132;8.518;2023-03-08T14:23:38;8.30;99.90
20726;DHT22;10524;48.132;8.518;2023-03-08T14:26:04;8.30;99.90
20726;DHT22;10524;48.132;8.518;2023-03-08T14:28:34;8.30;99.90
20726;DHT22;10524;48.132;8.518;2023-03-08T14:31:00;8.20;99.90
20726;DHT22;10524;48.132;8.518;2023-03-08T14:33:25;8.20;99.90
20726;DHT22;10524;48.132;8.518;2023-03-08T14:35:55;8.20;99.90
20726;DHT22;10524;48.132;8.518;2023-03-08T14:38:26;8.20;99.90
20726;DHT22;10524;48.132;8.518;2023-03-08T14:40:53;8.20;99.90
20726;DHT22;10524;48.132;8.518;2023-03-08T14:43:24;8.20;99.90
20726;DHT22;10524;48.132;8.518;2023-03-08T14:46:04;8.20;99.90
20726;DHT22;10524;48.132;8.518;2023-03-08T14:48:35;8.10;99.90
20726;DHT22;10524;48.132;8.518;2023-03-08T14:51:03;8.10;99.90
20726;DHT22;10524;48.132;8.518;2023-03-08T14:53:33;8.10;99.90
20726;DHT22;10524;48.132;8.518;2023-03-08T14:56:02;8.20;99.90
20726;DHT22;10524;48.132;8.518;2023-03-08T14:58:31;8.20;99.90
20726;DHT22;10524;48.132;8.518;2023-03-08T15:00:59;8.30;99.90
20726;DHT22;10524;48.132;8.518;2023-03-08T15:03:29;8.30;99.90
20726;DHT22;10524;48.132;8.518;2023-03-08T15:05:57;8.30;99.90
20726;DHT22;10524;48.132;8.518;2023-03-08T15:08:23;8.20;99.90
20726;DHT22;10524;48.132;8.518;2023-03-08T15:10:50;8.20;99.90
20726;DHT22;10524;48.132;8.518;2023-03-08T15:13:18;8.20;99.90
20726;DHT22;10524;48.132;8.518;2023-03-08T15:15:46;8.20;99.90
20726;DHT22;10524;48.132;8.518;2023-03-08T15:18:12;8.20;99.90
20726;DHT22;10524;48.132;8.518;2023-03-08T15:20:39;8.10;99.90
20726;DHT22;10524;48.132;8.518;2023-03-08T15:23:30;8.10;99.90
20726;DHT22;10524;48.132;8.518;2023-03-08T15:25:57;8.10;99.90
20726;DHT22;10524;48.132;8.518;2023-03-08T15:28:24;8.00;99.90
20726;DHT22;10524;48.132;8.518;2023-03-08T15:30:51;8.00;99.90
20726;DHT22;10524;48.132;8.518;2023-03-08T15:33:18;7.90;99.90
20726;DHT22;10524;48.132;8.518;2023-03-08T15:35:43;7.90;99.90
20726;DHT22;10524;48.132;8.518;2023-03-08T15:38:13;7.90;99.90
20726;DHT22;10524;48.132;8.518;2023-03-08T15:40:40;7.90;99.90
20726;DHT22;10524;48.132;8.518;2023-03-08T15:43:06;7.90;99.90
20726;DHT22;10524;48.132;8.518;2023-03-08T15:45:32;7.80;99.90
20726;DHT22;10524;48.132;8.518;2023-03-08T15:50:25;7.90;99.90
20726;DHT22;10524;48.132;8.518;2023-03-08T15:52:51;7.90;99.90
20726;DHT22;10524;48.132;8.518;2023-03-08T15:55:17;7.80;99.90
20726;DHT22;10524;48.132;8.518;2023-03-08T15:57:42;7.80;99.90
20726;DHT22;10524;48.132;8.518;2023-03-08T16:00:11;7.70;99.90
20726;DHT22;10524;48.132;8.518;2023-03-08T16:02:38;7.60;99.90
20726;DHT22;10524;48.132;8.518;2023-03-08T16:05:06;7.60;99.90
20726;DHT22;10524;48.132;8.518;2023-03-08T16:07:32;7.60;99.90
20726;DHT22;10524;48.132;8.518;2023-03-08T16:09:58;7.60;99.90
20726;DHT22;10524;48.132;8.518;2023-03-08T16:12:24;7.50;99.90
20726;DHT22;10524;48.132;8.518;2023-03-08T16:14:50;7.50;99.90
20726;DHT22;10524;48.132;8.518;2023-03-08T16:17:16;7.50;99.90
20726;DHT22;10524;48.132;8.518;2023-03-08T16:19:43;7.50;99.90
20726;DHT22;10524;48.132;8.518;2023-03-08T16:22:09;7.50;99.90
20726;DHT22;10524;48.132;8.518;2023-03-08T16:24:35;7.50;99.90
20726;DHT22;10524;48.132;8.518;2023-03-08T16:27:01;7.50;99.90
20726;DHT22;10524;48.132;8.518;2023-03-08T16:29:30;7.50;99.90
20726;DHT22;10524;48.132;8.518;2023-03-08T16:31:56;7.50;99.90
20726;DHT22;10524;48.132;8.518;2023-03-08T16:34:26;7.40;99.90
20726;DHT22;10524;48.132;8.518;2023-03-08T16:36:52;7.40;99.90
20726;DHT22;10524;48.132;8.518;2023-03-08T16:39:18;7.40;99.90
20726;DHT22;10524;48.132;8.518;2023-03-08T16:41:44;7.40;99.90
20726;DHT22;10524;48.132;8.518;2023-03-08T16:44:25;7.30;99.90
20726;DHT22;10524;48.132;8.518;2023-03-08T16:46:51;7.40;99.90
20726;DHT22;10524;48.132;8.518;2023-03-08T16:49:19;7.30;99.90
20726;DHT22;10524;48.132;8.518;2023-03-08T16:51:45;7.30;99.90
20726;DHT22;10524;48.132;8.518;2023-03-08T16:54:11;7.30;99.90
20726;DHT22;10524;48.132;8.518;2023-03-08T16:56:38;7.30;99.90
20726;DHT22;10524;48.132;8.518;2023-03-08T16:59:05;7.30;99.90
20726;DHT22;10524;48.132;8.518;2023-03-08T17:01:31;7.30;99.90
20726;DHT22;10524;48.132;8.518;2023-03-08T17:03:57;7.20;99.90
20726;DHT22;10524;48.132;8.518;2023-03-08T17:06:25;7.20;99.90
20726;DHT22;10524;48.132;8.518;2023-03-08T17:08:51;7.20;99.90
20726;DHT22;10524;48.132;8.518;2023-03-08T17:11:19;7.20;99.90
20726;DHT22;10524;48.132;8.518;2023-03-08T17:13:50;7.20;99.90
20726;DHT22;10524;48.132;8.518;2023-03-08T17:16:18;7.20;99.90
20726;DHT22;10524;48.132;8.518;2023-03-08T17:18:44;7.10;99.90
20726;DHT22;10524;48.132;8.518;2023-03-08T17:21:10;7.10;99.90